Time,TemperatureF,DewpointF,PressureIn,WindDirection,WindDirectionDegrees,WindSpeedMPH,WindSpeedGustMPH,Humidity,HourlyPrecipIn,Conditions,Clouds,dailyrainin,SoftwareType,DateUTC
2013-04-16 00:00:00,65.8,63.8,30.09,NE,45,0.0,4.6,93,0.00,BKN,,0.00,WeatherDisplay:10.37,2013-04-16 04:00:00,
2013-04-16 00:01:00,65.8,63.8,30.09,NE,45,1.0,2.7,93,0.00,BKN,,0.00,WeatherDisplay:10.37,2013-04-16 04:01:00,
2013-04-16 00:05:00,66.0,63.9,30.09,East,90,1.7,5.3,93,0.00,BKN,,0.00,WeatherDisplay:10.37,2013-04-16 04:05:00,
2013-04-16 00:10:00,66.0,63.9,30.09,NE,45,0.0,1.1,93,0.00,BKN,,0.00,WeatherDisplay:10.37,2013-04-16 04:10:00,
2013-04-16 00:15:00,66.2,64.1,30.09,NE,45,1.2,5.8,93,0.00,BKN,,0.00,WeatherDisplay:10.37,2013-04-16 04:15:00,
2013-04-16 00:20:00,66.0,63.9,30.09,NE,45,2.1,5.8,93,0.00,BKN,,0.00,WeatherDisplay:10.37,2013-04-16 04:20:00,
2013-04-16 00:25:00,66.0,63.9,30.09,NE,45,1.4,5.8,93,0.00,BKN,,0.00,WeatherDisplay:10.37,2013-04-16 04:25:00,
2013-04-16 00:30:00,65.8,63.8,30.08,NE,45,1.6,5.8,93,0.00,BKN,,0.00,WeatherDisplay:10.37,2013-04-16 04:30:00,
2013-04-16 00:35:00,65.8,63.8,30.08,NE,45,0.0,0.0,93,0.00,SCT,,0.00,WeatherDisplay:10.37,2013-04-16 04:35:00,
2013-04-16 00:40:00,65.8,63.8,30.08,NE,45,0.3,3.5,93,0.00,SCT,,0.00,WeatherDisplay:10.37,2013-04-16 04:40:00,
2013-04-16 00:45:00,65.5,63.4,30.08,NE,45,0.0,2.3,93,0.00,SCT,,0.00,WeatherDisplay:10.37,2013-04-16 04:45:00,
2013-04-16 00:50:00,65.5,63.7,30.08,NE,45,0.1,1.1,94,0.00,SCT,,0.00,WeatherDisplay:10.37,2013-04-16 04:50:00,
2013-04-16 00:55:00,65.5,63.7,30.08,NE,45,0.0,1.1,94,0.00,SCT,,0.00,WeatherDisplay:10.37,2013-04-16 04:55:00,
2013-04-16 01:00:00,65.5,63.7,30.07,NE,45,0.3,1.3,94,0.00,BKN,,0.00,WeatherDisplay:10.37,2013-04-16 05:00:00,
2013-04-16 01:05:00,65.5,63.7,30.07,NE,45,0.3,1.3,94,0.00,BKN,,0.00,WeatherDisplay:10.37,2013-04-16 05:05:00,
2013-04-16 01:10:00,65.3,63.5,30.07,NE,45,0.3,2.3,94,0.00,BKN,,0.00,WeatherDisplay:10.37,2013-04-16 05:10:00,
2013-04-16 01:15:00,65.1,63.3,30.07,NE,45,0.1,2.3,94,0.00,BKN,,0.00,WeatherDisplay:10.37,2013-04-16 05:15:00,
2013-04-16 01:20:00,65.1,63.3,30.07,NE,45,1.0,4.6,94,0.00,BKN,,0.00,WeatherDisplay:10.37,2013-04-16 05:20:00,
2013-04-16 01:25:00,65.1,63.7,30.07,NE,45,0.5,3.5,95,0.00,BKN,,0.00,WeatherDisplay:10.37,2013-04-16 05:25:00,
2013-04-16 01:30:00,65.1,63.7,30.07,NE,45,0.4,2.3,95,0.00,BKN,,0.00,WeatherDisplay:10.37,2013-04-16 05:30:00,
2013-04-16 01:35:00,64.9,63.5,30.07,NE,45,0.8,5.8,95,0.00,BKN,,0.00,WeatherDisplay:10.37,2013-04-16 05:35:00,
2013-04-16 01:40:00,65.1,63.7,30.07,NE,45,1.3,2.7,95,0.00,BKN,,0.00,WeatherDisplay:10.37,2013-04-16 05:40:00,
2013-04-16 01:45:00,65.1,63.7,30.07,East,90,1.0,5.8,95,0.00,BKN,,0.00,WeatherDisplay:10.37,2013-04-16 05:45:00,
2013-04-16 01:50:00,65.1,63.7,30.07,East,90,1.2,3.5,95,0.00,BKN,,0.00,WeatherDisplay:10.37,2013-04-16 05:50:00,
2013-04-16 01:55:00,65.1,63.7,30.07,NE,45,1.0,4.6,95,0.00,BKN,,0.00,WeatherDisplay:10.37,2013-04-16 05:55:00,
2013-04-16 02:00:00,65.1,63.7,30.07,NE,45,0.3,2.7,95,0.00,BKN,,0.00,WeatherDisplay:10.37,2013-04-16 06:00:00,
2013-04-16 02:05:00,64.9,63.5,30.07,NE,45,1.1,5.8,95,0.00,OVC,,0.00,WeatherDisplay:10.37,2013-04-16 06:05:00,
2013-04-16 02:10:00,65.1,63.7,30.07,NE,45,0.2,0.0,95,0.00,OVC,,0.00,WeatherDisplay:10.37,2013-04-16 06:10:00,
2013-04-16 02:15:00,65.1,63.7,30.07,NE,45,0.0,0.0,95,0.00,OVC,,0.00,WeatherDisplay:10.37,2013-04-16 06:15:00,
2013-04-16 02:20:00,65.1,63.7,30.07,NE,45,0.0,0.0,95,0.00,OVC,,0.00,WeatherDisplay:10.37,2013-04-16 06:20:00,
2013-04-16 02:25:00,65.1,63.7,30.07,NE,45,0.2,1.1,95,0.00,OVC,,0.00,WeatherDisplay:10.37,2013-04-16 06:25:00,
2013-04-16 02:30:00,65.1,63.7,30.07,NE,45,0.2,2.3,95,0.00,OVC,,0.00,WeatherDisplay:10.37,2013-04-16 06:30:00,
2013-04-16 02:35:00,65.1,63.7,30.06,NE,45,0.0,0.0,95,0.00,OVC,,0.00,WeatherDisplay:10.37,2013-04-16 06:35:00,
2013-04-16 02:40:00,65.1,63.7,30.07,NE,45,0.6,4.6,95,0.00,OVC,,0.00,WeatherDisplay:10.37,2013-04-16 06:40:00,
2013-04-16 02:45:00,65.1,63.7,30.06,NE,45,0.1,2.3,95,0.00,OVC,,0.00,WeatherDisplay:10.37,2013-04-16 06:45:00,
2013-04-16 02:50:00,65.1,63.7,30.07,NE,45,0.8,4.6,95,0.00,OVC,,0.00,WeatherDisplay:10.37,2013-04-16 06:50:00,
2013-04-16 02:55:00,65.1,63.7,30.07,NE,45,0.0,0.0,95,0.00,OVC,,0.00,WeatherDisplay:10.37,2013-04-16 06:55:00,
2013-04-16 03:00:00,65.1,63.7,30.06,NE,45,0.0,0.0,95,0.00,OVC,,0.00,WeatherDisplay:10.37,2013-04-16 07:00:00,
2013-04-16 03:05:00,65.1,63.7,30.07,NE,45,0.0,0.0,95,0.00,OVC,,0.00,WeatherDisplay:10.37,2013-04-16 07:05:00,
2013-04-16 03:10:00,65.1,63.7,30.07,NE,45,0.0,0.0,95,0.00,OVC,,0.00,WeatherDisplay:10.37,2013-04-16 07:10:00,
2013-04-16 03:15:00,65.3,63.8,30.06,NE,45,0.0,0.0,95,0.00,OVC,,0.00,WeatherDisplay:10.37,2013-04-16 07:15:00,
2013-04-16 03:20:00,65.3,63.8,30.06,NE,45,0.0,0.0,95,0.00,OVC,,0.00,WeatherDisplay:10.37,2013-04-16 07:20:00,
2013-04-16 03:25:00,65.3,63.8,30.06,NE,45,0.0,0.0,95,0.00,OVC,,0.00,WeatherDisplay:10.37,2013-04-16 07:25:00,
2013-04-16 03:30:00,65.3,63.8,30.06,NE,45,0.0,0.0,95,0.00,OVC,,0.00,WeatherDisplay:10.37,2013-04-16 07:30:00,
2013-04-16 03:35:00,65.3,63.8,30.06,NE,45,0.4,2.3,95,0.00,OVC,,0.00,WeatherDisplay:10.37,2013-04-16 07:35:00,
2013-04-16 03:40:00,65.3,63.8,30.06,NE,45,0.6,4.1,95,0.00,OVC,,0.00,WeatherDisplay:10.37,2013-04-16 07:40:00,
2013-04-16 03:45:00,65.1,63.3,30.06,NE,45,0.1,2.3,94,0.00,OVC,,0.00,WeatherDisplay:10.37,2013-04-16 07:45:00,
2013-04-16 03:50:00,65.1,63.3,30.06,NE,45,0.0,0.0,94,0.00,OVC,,0.00,WeatherDisplay:10.37,2013-04-16 07:50:00,
2013-04-16 03:55:00,65.1,63.3,30.06,NE,45,0.3,2.3,94,0.00,OVC,,0.00,WeatherDisplay:10.37,2013-04-16 07:55:00,
2013-04-16 04:00:00,65.1,63.3,30.07,NE,45,0.0,0.0,94,0.00,OVC,,0.00,WeatherDisplay:10.37,2013-04-16 08:00:00,
2013-04-16 04:05:00,65.3,63.5,30.06,NE,45,0.0,0.0,94,0.00,OVC,,0.00,WeatherDisplay:10.37,2013-04-16 08:05:00,
2013-04-16 04:10:00,65.3,63.5,30.07,NE,45,0.0,0.0,94,0.00,OVC,,0.00,WeatherDisplay:10.37,2013-04-16 08:10:00,
2013-04-16 04:15:00,65.3,63.5,30.07,NE,45,0.0,0.0,94,0.00,OVC,,0.00,WeatherDisplay:10.37,2013-04-16 08:15:00,
2013-04-16 04:20:00,65.3,63.5,30.06,NE,45,0.0,0.0,94,0.00,OVC,,0.00,WeatherDisplay:10.37,2013-04-16 08:20:00,
2013-04-16 04:25:00,65.3,63.5,30.07,NE,45,0.0,0.0,94,0.00,OVC,,0.00,WeatherDisplay:10.37,2013-04-16 08:25:00,
2013-04-16 04:30:00,65.3,63.5,30.07,NE,45,0.7,2.3,94,0.00,OVC,,0.00,WeatherDisplay:10.37,2013-04-16 08:30:00,
2013-04-16 04:35:00,65.5,63.7,30.07,NE,45,0.5,2.3,94,0.00,OVC,,0.00,WeatherDisplay:10.37,2013-04-16 08:35:00,
2013-04-16 04:40:00,65.3,63.5,30.07,NE,45,0.0,0.0,94,0.00,OVC,,0.00,WeatherDisplay:10.37,2013-04-16 08:40:00,
2013-04-16 04:45:00,65.3,63.5,30.07,NE,45,1.4,4.6,94,0.00,OVC,,0.00,WeatherDisplay:10.37,2013-04-16 08:45:00,
2013-04-16 04:50:00,65.3,63.5,30.07,NE,45,0.0,0.0,94,0.00,OVC,,0.00,WeatherDisplay:10.37,2013-04-16 08:50:00,
2013-04-16 04:55:00,65.1,63.3,30.07,NE,45,0.0,0.0,94,0.00,OVC,,0.00,WeatherDisplay:10.37,2013-04-16 08:55:00,
2013-04-16 05:00:00,65.1,63.3,30.07,NE,45,0.0,0.0,94,0.00,OVC,,0.00,WeatherDisplay:10.37,2013-04-16 09:00:00,
2013-04-16 05:05:00,65.3,63.5,30.07,NE,45,0.0,1.1,94,0.00,OVC,,0.00,WeatherDisplay:10.37,2013-04-16 09:05:00,
2013-04-16 05:10:00,65.3,63.5,30.07,NE,45,0.7,2.6,94,0.00,OVC,,0.00,WeatherDisplay:10.37,2013-04-16 09:10:00,
2013-04-16 05:15:00,65.3,63.5,30.07,NE,45,0.6,4.6,94,0.00,OVC,,0.00,WeatherDisplay:10.37,2013-04-16 09:15:00,
2013-04-16 05:20:00,65.3,63.5,30.08,NE,45,0.0,0.0,94,0.00,OVC,,0.00,WeatherDisplay:10.37,2013-04-16 09:20:00,
2013-04-16 05:25:00,65.1,63.3,30.08,NE,45,0.1,1.4,94,0.00,OVC,,0.00,WeatherDisplay:10.37,2013-04-16 09:25:00,
2013-04-16 05:30:00,65.1,63.3,30.08,NE,45,0.0,0.0,94,0.00,OVC,,0.00,WeatherDisplay:10.37,2013-04-16 09:30:00,
2013-04-16 05:35:00,65.1,63.3,30.08,NE,45,0.0,0.0,94,0.00,OVC,,0.00,WeatherDisplay:10.37,2013-04-16 09:35:00,
2013-04-16 05:40:00,65.3,63.5,30.08,NE,45,0.0,2.3,94,0.00,OVC,,0.00,WeatherDisplay:10.37,2013-04-16 09:40:00,
2013-04-16 05:45:00,65.3,63.5,30.08,NE,45,0.0,0.0,94,0.00,OVC,,0.00,WeatherDisplay:10.37,2013-04-16 09:45:00,
2013-04-16 05:50:00,65.3,63.5,30.08,NE,45,0.2,1.1,94,0.00,OVC,,0.00,WeatherDisplay:10.37,2013-04-16 09:50:00,
2013-04-16 05:55:00,65.3,63.5,30.09,NE,45,0.0,0.0,94,0.00,OVC,,0.00,WeatherDisplay:10.37,2013-04-16 09:55:00,
2013-04-16 06:00:00,65.1,63.3,30.08,NE,45,0.0,0.0,94,0.00,OVC,,0.00,WeatherDisplay:10.37,2013-04-16 10:00:00,
2013-04-16 06:05:00,65.1,63.3,30.09,NE,45,0.0,0.0,94,0.00,OVC,,0.00,WeatherDisplay:10.37,2013-04-16 10:05:00,
2013-04-16 06:10:00,64.9,63.2,30.08,NE,45,0.0,0.0,94,0.00,OVC,,0.00,WeatherDisplay:10.37,2013-04-16 10:10:00,
2013-04-16 06:15:00,64.8,63.0,30.09,NE,45,0.0,0.0,94,0.00,BKN,,0.00,WeatherDisplay:10.37,2013-04-16 10:15:00,
2013-04-16 06:20:00,64.6,63.1,30.09,NE,45,0.0,0.0,95,0.00,BKN,,0.00,WeatherDisplay:10.37,2013-04-16 10:20:00,
2013-04-16 06:25:00,64.4,62.9,30.09,NE,45,0.0,0.0,95,0.00,BKN,,0.00,WeatherDisplay:10.37,2013-04-16 10:25:00,
2013-04-16 06:30:00,64.4,62.9,30.08,NE,45,0.0,0.0,95,0.00,BKN,,0.00,WeatherDisplay:10.37,2013-04-16 10:30:00,
2013-04-16 06:35:00,64.2,62.8,30.09,NE,45,0.0,0.0,95,0.00,BKN,,0.00,WeatherDisplay:10.37,2013-04-16 10:35:00,
2013-04-16 06:40:00,64.2,62.8,30.09,NE,45,0.0,0.0,95,0.00,BKN,,0.00,WeatherDisplay:10.37,2013-04-16 10:40:00,
2013-04-16 06:45:00,64.2,62.8,30.09,NE,45,0.0,0.0,95,0.00,BKN,,0.00,WeatherDisplay:10.37,2013-04-16 10:45:00,
2013-04-16 06:50:00,64.2,62.8,30.09,NE,45,0.0,0.0,95,0.00,BKN,,0.00,WeatherDisplay:10.37,2013-04-16 10:50:00,
2013-04-16 06:55:00,64.2,62.8,30.09,NE,45,0.0,0.0,95,0.00,BKN,,0.00,WeatherDisplay:10.37,2013-04-16 10:55:00,
2013-04-16 07:00:00,64.2,62.8,30.09,NE,45,0.0,0.0,95,0.00,BKN,,0.00,WeatherDisplay:10.37,2013-04-16 11:00:00,
2013-04-16 07:05:00,64.0,62.6,30.10,NE,45,0.0,0.0,95,0.00,BKN,,0.00,WeatherDisplay:10.37,2013-04-16 11:05:00,
2013-04-16 07:10:00,64.0,62.6,30.10,NE,45,0.0,0.0,95,0.00,BKN,,0.00,WeatherDisplay:10.37,2013-04-16 11:10:00,
2013-04-16 07:15:00,63.7,62.5,30.10,NE,45,0.0,0.0,96,0.00,BKN,,0.00,WeatherDisplay:10.37,2013-04-16 11:15:00,
2013-04-16 07:20:00,63.7,62.5,30.10,NE,45,0.0,0.0,96,0.00,BKN,,0.00,WeatherDisplay:10.37,2013-04-16 11:20:00,
2013-04-16 07:25:00,63.7,62.5,30.10,NE,45,0.0,0.0,96,0.00,BKN,,0.00,WeatherDisplay:10.37,2013-04-16 11:25:00,
2013-04-16 07:30:00,63.7,62.5,30.11,NE,45,0.0,0.0,96,0.00,BKN,,0.00,WeatherDisplay:10.37,2013-04-16 11:30:00,
2013-04-16 07:35:00,63.9,62.7,30.11,NE,45,0.0,0.0,96,0.00,BKN,,0.00,WeatherDisplay:10.37,2013-04-16 11:35:00,
2013-04-16 07:40:00,64.0,62.9,30.11,NE,45,0.0,0.0,96,0.00,BKN,,0.00,WeatherDisplay:10.37,2013-04-16 11:40:00,
2013-04-16 07:45:00,64.2,63.1,30.11,NE,45,0.0,1.1,96,0.00,BKN,,0.00,WeatherDisplay:10.37,2013-04-16 11:45:00,
2013-04-16 07:50:00,64.6,63.4,30.12,NE,45,0.0,0.0,96,0.00,BKN,,0.00,WeatherDisplay:10.37,2013-04-16 11:50:00,
2013-04-16 07:55:00,64.8,63.6,30.12,NE,45,0.0,0.0,96,0.00,SCT,,0.00,WeatherDisplay:10.37,2013-04-16 11:55:00,
2013-04-16 08:00:00,65.1,64.0,30.12,NE,45,0.0,1.1,96,0.00,SCT,,0.00,WeatherDisplay:10.37,2013-04-16 12:00:00,
2013-04-16 08:05:00,65.5,64.0,30.12,NE,45,0.3,2.3,95,0.00,SCT,,0.00,WeatherDisplay:10.37,2013-04-16 12:05:00,
2013-04-16 08:10:00,65.8,64.7,30.12,NE,45,0.0,0.0,96,0.00,SCT,,0.00,WeatherDisplay:10.37,2013-04-16 12:10:00,
2013-04-16 08:15:00,66.2,65.0,30.12,NE,45,0.0,0.0,96,0.00,SCT,,0.00,WeatherDisplay:10.37,2013-04-16 12:15:00,
2013-04-16 08:20:00,66.9,65.7,30.12,NE,45,0.0,0.0,96,0.00,SCT,,0.00,WeatherDisplay:10.37,2013-04-16 12:20:00,
2013-04-16 08:25:00,67.3,65.8,30.12,NE,45,0.6,2.7,95,0.00,SCT,,0.00,WeatherDisplay:10.37,2013-04-16 12:25:00,
2013-04-16 08:30:00,67.6,66.2,30.12,NE,45,0.8,2.7,95,0.00,SCT,,0.00,WeatherDisplay:10.37,2013-04-16 12:30:00,
2013-04-16 08:35:00,68.4,66.6,30.12,NE,45,0.7,2.6,94,0.00,SCT,,0.00,WeatherDisplay:10.37,2013-04-16 12:35:00,
2013-04-16 08:40:00,68.7,66.6,30.12,NE,45,0.8,3.5,93,0.00,SCT,,0.00,WeatherDisplay:10.37,2013-04-16 12:40:00,
2013-04-16 08:45:00,68.9,66.5,30.13,NE,45,1.5,4.6,92,0.00,SCT,,0.00,WeatherDisplay:10.37,2013-04-16 12:45:00,
2013-04-16 08:50:00,69.4,66.1,30.13,NE,45,0.3,2.6,89,0.00,SCT,,0.00,WeatherDisplay:10.37,2013-04-16 12:50:00,
2013-04-16 08:55:00,69.6,65.9,30.13,NE,45,0.2,2.7,88,0.00,BKN,,0.00,WeatherDisplay:10.37,2013-04-16 12:55:00,
2013-04-16 09:00:00,70.0,66.3,30.13,NE,45,1.2,3.5,88,0.00,BKN,,0.00,WeatherDisplay:10.37,2013-04-16 13:00:00,
2013-04-16 09:05:00,70.3,66.6,30.13,NE,45,1.8,4.6,88,0.00,BKN,,0.00,WeatherDisplay:10.37,2013-04-16 13:05:00,
2013-04-16 09:10:00,70.9,67.1,30.13,NE,45,0.1,0.0,88,0.00,BKN,,0.00,WeatherDisplay:10.37,2013-04-16 13:10:00,
2013-04-16 09:15:00,71.4,67.3,30.13,NE,45,0.7,4.6,87,0.00,BKN,,0.00,WeatherDisplay:10.37,2013-04-16 13:15:00,
2013-04-16 09:19:00,72.1,67.7,30.13,NE,45,1.8,4.6,86,0.00,BKN,,0.00,WeatherDisplay:10.37,2013-04-16 13:19:00,
2013-04-16 09:24:00,72.0,67.2,30.13,NE,45,0.6,3.5,85,0.00,BKN,,0.00,WeatherDisplay:10.37,2013-04-16 13:24:00,
2013-04-16 09:29:00,72.1,67.4,30.13,NE,45,0.9,5.8,85,0.00,BKN,,0.00,WeatherDisplay:10.37,2013-04-16 13:29:00,
2013-04-16 09:34:00,72.5,67.4,30.13,NE,45,0.3,2.3,84,0.00,BKN,,0.00,WeatherDisplay:10.37,2013-04-16 13:34:00,
2013-04-16 09:40:00,72.9,67.7,30.14,NE,45,0.5,5.8,84,0.00,BKN,,0.00,WeatherDisplay:10.37,2013-04-16 13:40:00,
2013-04-16 09:45:00,73.0,67.9,30.14,NE,45,0.4,4.6,84,0.00,BKN,,0.00,WeatherDisplay:10.37,2013-04-16 13:45:00,
2013-04-16 09:50:00,73.6,68.1,30.14,East,90,1.2,4.6,83,0.00,BKN,,0.00,WeatherDisplay:10.37,2013-04-16 13:50:00,
2013-04-16 09:55:00,73.6,67.7,30.14,North,0,2.5,4.6,82,0.00,BKN,,0.00,WeatherDisplay:10.37,2013-04-16 13:55:00,
2013-04-16 10:00:00,73.0,67.6,30.14,NE,45,1.3,4.6,83,0.00,BKN,,0.00,WeatherDisplay:10.37,2013-04-16 14:00:00,
2013-04-16 10:05:00,73.4,67.9,30.14,North,0,0.8,2.3,83,0.00,OVC,,0.00,WeatherDisplay:10.37,2013-04-16 14:05:00,
2013-04-16 10:10:00,73.2,68.1,30.14,NE,45,3.2,10.4,84,0.00,OVC,,0.00,WeatherDisplay:10.37,2013-04-16 14:10:00,
2013-04-16 10:15:00,73.6,68.1,30.14,NE,45,2.2,4.3,83,0.00,OVC,,0.00,WeatherDisplay:10.37,2013-04-16 14:15:00,
2013-04-16 10:20:00,74.3,68.4,30.14,East,90,0.2,2.3,82,0.00,OVC,,0.00,WeatherDisplay:10.37,2013-04-16 14:20:00,
2013-04-16 10:25:00,74.1,68.6,30.15,NE,45,1.4,5.8,83,0.00,OVC,,0.00,WeatherDisplay:10.37,2013-04-16 14:25:00,
2013-04-16 10:30:00,74.8,68.6,30.15,East,90,2.4,5.8,81,0.00,OVC,,0.00,WeatherDisplay:10.37,2013-04-16 14:30:00,
2013-04-16 10:35:00,75.9,69.3,30.15,East,90,1.1,4.6,80,0.00,SCT,,0.00,WeatherDisplay:10.37,2013-04-16 14:35:00,
2013-04-16 10:40:00,77.7,69.9,30.14,NE,45,2.4,4.6,77,0.00,SCT,,0.00,WeatherDisplay:10.37,2013-04-16 14:40:00,
2013-04-16 10:45:00,77.9,69.3,30.15,NE,45,1.6,4.6,75,0.00,SCT,,0.00,WeatherDisplay:10.37,2013-04-16 14:45:00,
2013-04-16 10:50:00,77.2,69.4,30.15,NE,45,2.3,5.8,77,0.00,SCT,,0.00,WeatherDisplay:10.37,2013-04-16 14:50:00,
2013-04-16 10:55:00,76.8,69.4,30.14,NE,45,0.7,2.7,78,0.00,SCT,,0.00,WeatherDisplay:10.37,2013-04-16 14:55:00,
2013-04-16 11:00:00,78.1,69.9,30.14,NE,45,2.3,5.8,76,0.00,SCT,,0.00,WeatherDisplay:10.37,2013-04-16 15:00:00,
2013-04-16 11:05:00,79.0,69.6,30.15,NE,45,2.8,4.6,73,0.00,FEW,,0.00,WeatherDisplay:10.37,2013-04-16 15:05:00,
2013-04-16 11:10:00,79.2,70.2,30.15,East,90,1.0,5.8,74,0.00,FEW,,0.00,WeatherDisplay:10.37,2013-04-16 15:10:00,
2013-04-16 11:15:00,79.0,70.0,30.15,NE,45,2.6,4.6,74,0.00,FEW,,0.00,WeatherDisplay:10.37,2013-04-16 15:15:00,
2013-04-16 11:20:00,79.0,70.0,30.15,NE,45,2.4,5.8,74,0.00,FEW,,0.00,WeatherDisplay:10.37,2013-04-16 15:20:00,
2013-04-16 11:25:00,80.2,70.8,30.15,NE,45,1.0,2.7,73,0.00,BKN,,0.00,WeatherDisplay:10.37,2013-04-16 15:25:00,
2013-04-16 11:30:00,80.2,70.0,30.15,NE,45,1.8,5.8,71,0.00,BKN,,0.00,WeatherDisplay:10.37,2013-04-16 15:30:00,
2013-04-16 11:35:00,80.8,70.5,30.15,East,90,0.3,2.3,71,0.00,BKN,,0.00,WeatherDisplay:10.37,2013-04-16 15:35:00,
2013-04-16 11:40:00,80.2,70.4,30.15,NE,45,1.3,2.3,72,0.00,BKN,,0.00,WeatherDisplay:10.37,2013-04-16 15:40:00,
2013-04-16 11:45:00,82.8,71.5,30.15,East,90,0.4,2.3,69,0.00,BKN,,0.00,WeatherDisplay:10.37,2013-04-16 15:45:00,
2013-04-16 11:50:00,83.5,71.8,30.15,NE,45,2.1,4.7,68,0.00,BKN,,0.00,WeatherDisplay:10.37,2013-04-16 15:50:00,
2013-04-16 11:55:00,84.0,71.9,30.15,SE,135,1.1,8.1,67,0.00,BKN,,0.00,WeatherDisplay:10.37,2013-04-16 15:55:00,
2013-04-16 12:00:00,82.9,71.7,30.15,NE,45,0.5,4.6,69,0.00,BKN,,0.00,WeatherDisplay:10.37,2013-04-16 16:00:00,
2013-04-16 12:05:00,84.0,71.9,30.15,East,90,1.9,4.6,67,0.00,BKN,,0.00,WeatherDisplay:10.37,2013-04-16 16:05:00,
2013-04-16 12:10:00,84.7,71.2,30.14,East,90,2.1,4.6,64,0.00,BKN,,0.00,WeatherDisplay:10.37,2013-04-16 16:10:00,
2013-04-16 12:15:00,84.9,71.8,30.14,NE,45,4.1,5.8,65,0.00,BKN,,0.00,WeatherDisplay:10.37,2013-04-16 16:15:00,
2013-04-16 12:20:00,83.8,71.3,30.14,NE,45,3.8,8.1,66,0.00,BKN,,0.00,WeatherDisplay:10.37,2013-04-16 16:20:00,
2013-04-16 12:25:00,83.3,71.2,30.15,East,90,2.7,8.1,67,0.00,BKN,,0.00,WeatherDisplay:10.37,2013-04-16 16:25:00,
2013-04-16 12:30:00,84.0,71.4,30.14,East,90,1.4,4.6,66,0.00,BKN,,0.00,WeatherDisplay:10.37,2013-04-16 16:30:00,
2013-04-16 12:34:00,83.8,70.4,30.14,NE,45,1.2,5.8,64,0.00,BKN,,0.00,WeatherDisplay:10.37,2013-04-16 16:34:00,
2013-04-16 12:39:00,82.9,70.9,30.14,East,90,2.0,5.8,67,0.00,BKN,,0.00,WeatherDisplay:10.37,2013-04-16 16:39:00,
2013-04-16 12:44:00,84.7,72.1,30.14,SE,135,1.3,5.8,66,0.00,BKN,,0.00,WeatherDisplay:10.37,2013-04-16 16:44:00,
2013-04-16 12:49:00,86.4,71.3,30.14,NE,45,1.9,5.4,61,0.00,BKN,,0.00,WeatherDisplay:10.37,2013-04-16 16:49:00,
2013-04-16 12:54:00,86.4,71.3,30.13,NE,45,1.1,4.6,61,0.00,BKN,,0.00,WeatherDisplay:10.37,2013-04-16 16:54:00,
2013-04-16 12:59:00,86.5,70.5,30.13,East,90,0.4,5.8,59,0.00,BKN,,0.00,WeatherDisplay:10.37,2013-04-16 16:59:00,
2013-04-16 13:04:00,87.1,70.0,30.13,NE,45,1.4,8.1,57,0.00,BKN,,0.00,WeatherDisplay:10.37,2013-04-16 17:04:00,
2013-04-16 13:09:00,87.6,71.5,30.13,East,90,0.3,3.5,59,0.00,BKN,,0.00,WeatherDisplay:10.37,2013-04-16 17:09:00,
2013-04-16 13:14:00,88.9,71.7,30.14,SE,135,1.8,6.9,57,0.00,BKN,,0.00,WeatherDisplay:10.37,2013-04-16 17:14:00,
2013-04-16 13:19:00,89.2,72.0,30.13,NE,45,2.5,5.8,57,0.00,BKN,,0.00,WeatherDisplay:10.37,2013-04-16 17:19:00,
2013-04-16 13:24:00,87.4,69.8,30.14,SE,135,1.8,5.8,56,0.00,BKN,,0.00,WeatherDisplay:10.37,2013-04-16 17:24:00,
2013-04-16 13:29:00,86.0,70.0,30.14,NE,45,1.5,4.6,59,0.00,BKN,,0.00,WeatherDisplay:10.37,2013-04-16 17:29:00,
2013-04-16 13:34:00,86.4,69.8,30.14,NE,45,3.0,6.9,58,0.00,BKN,,0.00,WeatherDisplay:10.37,2013-04-16 17:34:00,
2013-04-16 13:39:00,86.5,70.0,30.13,NE,45,1.1,5.8,58,0.00,BKN,,0.00,WeatherDisplay:10.37,2013-04-16 17:39:00,
2013-04-16 13:44:00,86.5,70.0,30.13,North,0,2.4,5.8,58,0.00,BKN,,0.00,WeatherDisplay:10.37,2013-04-16 17:44:00,
2013-04-16 13:49:00,85.6,69.7,30.13,NE,45,2.8,5.8,59,0.00,BKN,,0.00,WeatherDisplay:10.37,2013-04-16 17:49:00,
2013-04-16 13:54:00,84.7,69.3,30.13,East,90,2.1,5.8,60,0.00,BKN,,0.00,WeatherDisplay:10.37,2013-04-16 17:54:00,
2013-04-16 13:59:00,82.9,68.6,30.13,NE,45,1.9,8.1,62,0.00,BKN,,0.00,WeatherDisplay:10.37,2013-04-16 17:59:00,
2013-04-16 14:04:00,84.0,68.6,30.13,SE,135,2.8,5.8,60,0.00,BKN,,0.00,WeatherDisplay:10.37,2013-04-16 18:04:00,
2013-04-16 14:09:00,84.7,69.3,30.13,NE,45,2.1,5.8,60,0.00,BKN,,0.00,WeatherDisplay:10.37,2013-04-16 18:09:00,
2013-04-16 14:14:00,84.6,69.1,30.13,SE,135,4.7,8.1,60,0.00,BKN,,0.00,WeatherDisplay:10.37,2013-04-16 18:14:00,
2013-04-16 14:19:00,84.9,69.0,30.13,NE,45,2.8,8.1,59,0.00,BKN,,0.00,WeatherDisplay:10.37,2013-04-16 18:19:00,
2013-04-16 14:24:00,85.1,68.7,30.13,NE,45,4.1,8.1,58,0.00,BKN,,0.00,WeatherDisplay:10.37,2013-04-16 18:24:00,
2013-04-16 14:29:00,84.6,69.1,30.13,East,90,4.7,8.1,60,0.00,BKN,,0.00,WeatherDisplay:10.37,2013-04-16 18:29:00,
2013-04-16 14:34:00,83.8,68.5,30.13,NE,45,2.9,5.8,60,0.00,BKN,,0.00,WeatherDisplay:10.37,2013-04-16 18:34:00,
2013-04-16 14:39:00,83.1,68.7,30.13,East,90,3.3,6.9,62,0.00,BKN,,0.00,WeatherDisplay:10.37,2013-04-16 18:39:00,
2013-04-16 14:44:00,83.8,69.4,30.13,North,0,3.7,5.8,62,0.00,BKN,,0.00,WeatherDisplay:10.37,2013-04-16 18:44:00,
2013-04-16 14:49:00,83.7,68.3,30.12,NW,315,2.7,5.8,60,0.00,BKN,,0.00,WeatherDisplay:10.37,2013-04-16 18:49:00,
2013-04-16 14:54:00,83.8,69.0,30.12,East,90,2.2,5.8,61,0.00,BKN,,0.00,WeatherDisplay:10.37,2013-04-16 18:54:00,
2013-04-16 14:59:00,83.8,69.0,30.12,NE,45,2.5,8.1,61,0.00,BKN,,0.00,WeatherDisplay:10.37,2013-04-16 18:59:00,
2013-04-16 15:04:00,83.1,68.3,30.12,NE,45,4.1,8.1,61,0.00,SCT,,0.00,WeatherDisplay:10.37,2013-04-16 19:04:00,
2013-04-16 15:09:00,83.1,69.2,30.11,NE,45,2.9,6.1,63,0.00,SCT,,0.00,WeatherDisplay:10.37,2013-04-16 19:09:00,
2013-04-16 15:14:00,83.8,69.0,30.11,East,90,2.0,4.6,61,0.00,SCT,,0.00,WeatherDisplay:10.37,2013-04-16 19:14:00,
2013-04-16 15:19:00,83.1,68.3,30.11,East,90,2.3,8.1,61,0.00,SCT,,0.00,WeatherDisplay:10.37,2013-04-16 19:19:00,
2013-04-16 15:24:00,82.9,68.6,30.11,NE,45,3.1,5.8,62,0.00,SCT,,0.00,WeatherDisplay:10.37,2013-04-16 19:24:00,
2013-04-16 15:29:00,83.1,69.2,30.11,NE,45,3.5,6.9,63,0.00,SCT,,0.00,WeatherDisplay:10.37,2013-04-16 19:29:00,
2013-04-16 15:34:00,83.1,68.7,30.11,NE,45,2.8,5.8,62,0.00,SCT,,0.00,WeatherDisplay:10.37,2013-04-16 19:34:00,
2013-04-16 15:39:00,83.3,68.9,30.11,SE,135,2.9,5.8,62,0.00,SCT,,0.00,WeatherDisplay:10.37,2013-04-16 19:39:00,
2013-04-16 15:44:00,82.2,68.4,30.11,NE,45,2.8,4.6,63,0.00,SCT,,0.00,WeatherDisplay:10.37,2013-04-16 19:44:00,
2013-04-16 15:49:00,82.9,68.6,30.11,NE,45,4.2,5.8,62,0.00,SCT,,0.00,WeatherDisplay:10.37,2013-04-16 19:49:00,
2013-04-16 15:54:00,82.9,68.6,30.11,NE,45,2.4,5.8,62,0.00,SCT,,0.00,WeatherDisplay:10.37,2013-04-16 19:54:00,
2013-04-16 15:59:00,82.9,68.1,30.11,East,90,2.0,4.6,61,0.00,SCT,,0.00,WeatherDisplay:10.37,2013-04-16 19:59:00,
2013-04-16 16:04:00,82.9,67.6,30.11,East,90,2.7,5.8,60,0.00,SCT,,0.00,WeatherDisplay:10.37,2013-04-16 20:04:00,
2013-04-16 16:09:00,83.1,68.3,30.10,NE,45,2.3,4.6,61,0.00,SCT,,0.00,WeatherDisplay:10.37,2013-04-16 20:09:00,
2013-04-16 16:14:00,83.1,67.3,30.11,NE,45,3.2,6.9,59,0.00,SCT,,0.00,WeatherDisplay:10.37,2013-04-16 20:14:00,
2013-04-16 16:19:00,82.8,67.5,30.11,North,0,3.4,5.8,60,0.00,SCT,,0.00,WeatherDisplay:10.37,2013-04-16 20:19:00,
2013-04-16 16:24:00,82.2,67.4,30.11,East,90,1.3,3.5,61,0.00,SCT,,0.00,WeatherDisplay:10.37,2013-04-16 20:24:00,
2013-04-16 16:29:00,82.4,68.1,30.11,NE,45,3.0,9.2,62,0.00,SCT,,0.00,WeatherDisplay:10.37,2013-04-16 20:29:00,
2013-04-16 16:34:00,81.7,67.9,30.11,NE,45,1.7,8.1,63,0.00,SCT,,0.00,WeatherDisplay:10.37,2013-04-16 20:34:00,
2013-04-16 16:39:00,81.7,67.4,30.11,East,90,3.2,5.8,62,0.00,SCT,,0.00,WeatherDisplay:10.37,2013-04-16 20:39:00,
2013-04-16 16:44:00,82.2,68.8,30.11,NE,45,4.1,8.1,64,0.00,SCT,,0.00,WeatherDisplay:10.37,2013-04-16 20:44:00,
2013-04-16 16:49:00,81.5,67.7,30.11,NE,45,2.9,6.9,63,0.00,SCT,,0.00,WeatherDisplay:10.37,2013-04-16 20:49:00,
2013-04-16 16:54:00,81.0,67.2,30.11,NE,45,1.9,5.4,63,0.00,SCT,,0.00,WeatherDisplay:10.37,2013-04-16 20:54:00,
2013-04-16 16:59:00,80.8,67.5,30.11,NE,45,2.8,5.8,64,0.00,SCT,,0.00,WeatherDisplay:10.37,2013-04-16 20:59:00,
2013-04-16 17:04:00,81.0,67.2,30.11,NE,45,3.8,5.8,63,0.00,SCT,,0.00,WeatherDisplay:10.37,2013-04-16 21:04:00,
2013-04-16 17:09:00,80.8,67.5,30.11,NE,45,2.1,8.1,64,0.00,SCT,,0.00,WeatherDisplay:10.37,2013-04-16 21:09:00,
2013-04-16 17:14:00,80.4,67.1,30.11,NE,45,0.9,4.6,64,0.00,SCT,,0.00,WeatherDisplay:10.37,2013-04-16 21:14:00,
2013-04-16 17:19:00,80.4,67.1,30.11,East,90,1.8,8.0,64,0.00,SCT,,0.00,WeatherDisplay:10.37,2013-04-16 21:19:00,
2013-04-16 17:24:00,80.6,66.8,30.11,NE,45,2.9,8.1,63,0.00,SCT,,0.00,WeatherDisplay:10.37,2013-04-16 21:24:00,
2013-04-16 17:29:00,80.2,66.5,30.11,NE,45,4.4,8.1,63,0.00,SCT,,0.00,WeatherDisplay:10.37,2013-04-16 21:29:00,
2013-04-16 17:34:00,80.2,67.0,30.11,NE,45,2.2,8.1,64,0.00,SCT,,0.00,WeatherDisplay:10.37,2013-04-16 21:34:00,
2013-04-16 17:39:00,79.9,66.6,30.11,NE,45,2.8,8.1,64,0.00,SCT,,0.00,WeatherDisplay:10.37,2013-04-16 21:39:00,
2013-04-16 17:44:00,79.7,66.9,30.11,North,0,2.8,5.8,65,0.00,SCT,,0.00,WeatherDisplay:10.37,2013-04-16 21:44:00,
2013-04-16 17:49:00,79.7,66.4,30.11,North,0,2.6,9.2,64,0.00,SCT,,0.00,WeatherDisplay:10.37,2013-04-16 21:49:00,
2013-04-16 17:54:00,79.3,66.5,30.12,North,0,4.1,5.8,65,0.00,SCT,,0.00,WeatherDisplay:10.37,2013-04-16 21:54:00,
2013-04-16 17:59:00,79.3,67.0,30.12,NE,45,1.0,2.7,66,0.00,SCT,,0.00,WeatherDisplay:10.37,2013-04-16 21:59:00,
2013-04-16 18:04:00,79.5,67.6,30.12,NE,45,1.8,5.8,67,0.00,FEW,,0.00,WeatherDisplay:10.37,2013-04-16 22:04:00,
2013-04-16 18:09:00,79.3,67.4,30.12,NE,45,0.9,4.6,67,0.00,FEW,,0.00,WeatherDisplay:10.37,2013-04-16 22:09:00,
2013-04-16 18:14:00,78.6,66.7,30.12,NE,45,1.9,5.4,67,0.00,FEW,,0.00,WeatherDisplay:10.37,2013-04-16 22:14:00,
2013-04-16 18:19:00,78.4,67.0,30.12,North,0,3.3,6.9,68,0.00,FEW,,0.00,WeatherDisplay:10.37,2013-04-16 22:19:00,
2013-04-16 18:24:00,78.3,67.3,30.12,NE,45,2.2,8.1,69,0.00,FEW,,0.00,WeatherDisplay:10.37,2013-04-16 22:24:00,
2013-04-16 18:29:00,77.7,67.2,30.12,NE,45,2.6,6.9,70,0.00,FEW,,0.00,WeatherDisplay:10.37,2013-04-16 22:29:00,
2013-04-16 18:34:00,77.5,67.4,30.12,North,0,2.3,8.1,71,0.00,FEW,,0.00,WeatherDisplay:10.37,2013-04-16 22:34:00,
2013-04-16 18:39:00,77.4,67.6,30.12,East,90,3.3,5.8,72,0.00,FEW,,0.00,WeatherDisplay:10.37,2013-04-16 22:39:00,
2013-04-16 18:44:00,77.2,67.5,30.12,East,90,1.1,5.4,72,0.00,FEW,,0.00,WeatherDisplay:10.37,2013-04-16 22:44:00,
2013-04-16 18:49:00,77.0,67.3,30.12,North,0,2.5,4.6,72,0.00,FEW,,0.00,WeatherDisplay:10.37,2013-04-16 22:49:00,
2013-04-16 18:54:00,76.6,67.3,30.12,SE,135,2.3,5.8,73,0.00,FEW,,0.00,WeatherDisplay:10.37,2013-04-16 22:54:00,
2013-04-16 18:59:00,76.6,67.3,30.12,NE,45,3.1,5.8,73,0.00,FEW,,0.00,WeatherDisplay:10.37,2013-04-16 22:59:00,
2013-04-16 19:04:00,76.3,67.4,30.12,NE,45,1.0,5.8,74,0.00,SCT,,0.00,WeatherDisplay:10.37,2013-04-16 23:04:00,
2013-04-16 19:09:00,76.3,67.4,30.12,NE,45,0.4,3.5,74,0.00,SCT,,0.00,WeatherDisplay:10.37,2013-04-16 23:09:00,
2013-04-16 19:14:00,75.9,67.0,30.13,NE,45,1.0,4.1,74,0.00,SCT,,0.00,WeatherDisplay:10.37,2013-04-16 23:14:00,
2013-04-16 19:19:00,75.9,67.0,30.13,NE,45,1.0,4.1,74,0.00,SCT,,0.00,WeatherDisplay:10.37,2013-04-16 23:19:00,
2013-04-16 19:24:00,75.6,67.1,30.12,NE,45,1.8,4.6,75,0.00,SCT,,0.00,WeatherDisplay:10.37,2013-04-16 23:24:00,
2013-04-16 19:29:00,75.4,67.3,30.12,SE,135,1.2,4.6,76,0.00,SCT,,0.00,WeatherDisplay:10.37,2013-04-16 23:29:00,
2013-04-16 19:34:00,74.8,66.4,30.13,NE,45,2.8,8.1,75,0.00,SCT,,0.00,WeatherDisplay:10.37,2013-04-16 23:34:00,
2013-04-16 19:39:00,74.8,66.8,30.13,NE,45,3.1,8.1,76,0.00,SCT,,0.00,WeatherDisplay:10.37,2013-04-16 23:39:00,
2013-04-16 19:44:00,74.5,66.4,30.13,NE,45,0.9,5.8,76,0.00,SCT,,0.00,WeatherDisplay:10.37,2013-04-16 23:44:00,
2013-04-16 19:49:00,74.1,66.4,30.13,NE,45,0.6,8.1,77,0.00,SCT,,0.00,WeatherDisplay:10.37,2013-04-16 23:49:00,
2013-04-16 19:54:00,73.9,66.3,30.13,NE,45,1.4,2.7,77,0.00,SCT,,0.00,WeatherDisplay:10.37,2013-04-16 23:54:00,
2013-04-16 19:59:00,73.8,66.1,30.13,NE,45,1.0,2.7,77,0.00,SCT,,0.00,WeatherDisplay:10.37,2013-04-16 23:59:00,
2013-04-16 20:04:00,73.4,66.5,30.13,NE,45,1.4,5.8,79,0.00,SCT,,0.00,WeatherDisplay:10.37,2013-04-17 00:04:00,
2013-04-16 20:09:00,73.2,66.3,30.13,NE,45,1.7,4.6,79,0.00,SCT,,0.00,WeatherDisplay:10.37,2013-04-17 00:09:00,
2013-04-16 20:14:00,73.0,66.1,30.13,NE,45,1.9,5.4,79,0.00,SCT,,0.00,WeatherDisplay:10.37,2013-04-17 00:14:00,
2013-04-16 20:18:00,72.5,65.6,30.13,East,90,2.5,8.1,79,0.00,SCT,,0.00,WeatherDisplay:10.37,2013-04-17 00:18:00,
2013-04-16 20:23:00,72.3,65.8,30.13,NE,45,3.7,8.1,80,0.00,SCT,,0.00,WeatherDisplay:10.37,2013-04-17 00:23:00,
2013-04-16 20:28:00,72.1,65.6,30.13,NE,45,0.2,2.3,80,0.00,SCT,,0.00,WeatherDisplay:10.37,2013-04-17 00:28:00,
2013-04-16 20:33:00,71.8,66.0,30.14,NE,45,1.8,5.8,82,0.00,SCT,,0.00,WeatherDisplay:10.37,2013-04-17 00:33:00,
2013-04-16 20:38:00,71.4,66.0,30.14,NE,45,0.1,2.7,83,0.00,SCT,,0.00,WeatherDisplay:10.37,2013-04-17 00:38:00,
2013-04-16 20:43:00,71.2,65.8,30.14,NE,45,3.2,6.9,83,0.00,SCT,,0.00,WeatherDisplay:10.37,2013-04-17 00:43:00,
2013-04-16 20:48:00,71.1,66.0,30.14,NE,45,0.9,5.8,84,0.00,SCT,,0.00,WeatherDisplay:10.37,2013-04-17 00:48:00,
2013-04-16 20:53:00,70.9,66.1,30.14,East,90,1.4,5.8,85,0.00,SCT,,0.00,WeatherDisplay:10.37,2013-04-17 00:53:00,
2013-04-16 20:58:00,70.7,66.0,30.14,North,0,2.6,6.9,85,0.00,SCT,,0.00,WeatherDisplay:10.37,2013-04-17 00:58:00,
2013-04-16 21:03:00,70.5,66.1,30.14,NE,45,0.7,5.8,86,0.00,CLR,,0.00,WeatherDisplay:10.37,2013-04-17 01:03:00,
2013-04-16 21:08:00,70.3,66.0,30.14,NE,45,1.2,5.3,86,0.00,CLR,,0.00,WeatherDisplay:10.37,2013-04-17 01:08:00,
2013-04-16 21:13:00,70.2,66.1,30.14,NE,45,1.1,4.6,87,0.00,CLR,,0.00,WeatherDisplay:10.37,2013-04-17 01:13:00,
2013-04-16 21:18:00,70.0,66.3,30.14,NE,45,0.5,5.8,88,0.00,CLR,,0.00,WeatherDisplay:10.37,2013-04-17 01:18:00,
2013-04-16 21:23:00,69.6,65.9,30.15,NE,45,1.1,5.8,88,0.00,CLR,,0.00,WeatherDisplay:10.37,2013-04-17 01:23:00,
2013-04-16 21:28:00,69.6,65.9,30.15,NE,45,1.3,5.8,88,0.00,CLR,,0.00,WeatherDisplay:10.37,2013-04-17 01:28:00,
2013-04-16 21:33:00,69.4,66.1,30.15,East,90,0.1,5.8,89,0.00,CLR,,0.00,WeatherDisplay:10.37,2013-04-17 01:33:00,
2013-04-16 21:38:00,69.4,66.1,30.15,NE,45,0.0,2.3,89,0.00,CLR,,0.00,WeatherDisplay:10.37,2013-04-17 01:38:00,
2013-04-16 21:43:00,69.1,65.7,30.15,NE,45,0.1,2.3,89,0.00,CLR,,0.00,WeatherDisplay:10.37,2013-04-17 01:43:00,
2013-04-16 21:48:00,69.1,66.0,30.15,NE,45,1.6,5.8,90,0.00,CLR,,0.00,WeatherDisplay:10.37,2013-04-17 01:48:00,
2013-04-16 21:53:00,68.7,65.7,30.15,NE,45,1.1,4.6,90,0.00,CLR,,0.00,WeatherDisplay:10.37,2013-04-17 01:53:00,
2013-04-16 21:58:00,68.7,66.0,30.15,NE,45,1.6,5.8,91,0.00,CLR,,0.00,WeatherDisplay:10.37,2013-04-17 01:58:00,
2013-04-16 22:03:00,68.7,66.0,30.15,NE,45,0.5,4.6,91,0.00,CLR,,0.00,WeatherDisplay:10.37,2013-04-17 02:03:00,
2013-04-16 22:08:00,68.5,65.8,30.15,NE,45,1.2,5.8,91,0.00,CLR,,0.00,WeatherDisplay:10.37,2013-04-17 02:08:00,
2013-04-16 22:13:00,68.5,66.1,30.15,NE,45,1.4,5.4,92,0.00,CLR,,0.00,WeatherDisplay:10.37,2013-04-17 02:13:00,
2013-04-16 22:18:00,68.5,66.1,30.15,North,0,1.0,4.6,92,0.00,CLR,,0.00,WeatherDisplay:10.37,2013-04-17 02:18:00,
2013-04-16 22:23:00,68.4,65.9,30.15,NE,45,1.0,5.8,92,0.00,CLR,,0.00,WeatherDisplay:10.37,2013-04-17 02:23:00,
2013-04-16 22:28:00,68.2,65.8,30.15,NE,45,1.3,5.8,92,0.00,CLR,,0.00,WeatherDisplay:10.37,2013-04-17 02:28:00,
2013-04-16 22:33:00,68.2,65.8,30.15,NE,45,1.1,5.8,92,0.00,CLR,,0.00,WeatherDisplay:10.37,2013-04-17 02:33:00,
2013-04-16 22:38:00,68.2,65.8,30.15,NE,45,0.8,2.7,92,0.00,CLR,,0.00,WeatherDisplay:10.37,2013-04-17 02:38:00,
2013-04-16 22:43:00,68.0,65.6,30.15,NE,45,0.0,0.0,92,0.00,CLR,,0.00,WeatherDisplay:10.37,2013-04-17 02:43:00,
2013-04-16 22:48:00,67.8,65.4,30.15,NE,45,1.9,5.8,92,0.00,CLR,,0.00,WeatherDisplay:10.37,2013-04-17 02:48:00,
2013-04-16 22:53:00,67.8,65.7,30.15,NE,45,1.3,4.6,93,0.00,CLR,,0.00,WeatherDisplay:10.37,2013-04-17 02:53:00,
2013-04-16 22:58:00,67.8,65.7,30.15,NE,45,2.3,5.8,93,0.00,CLR,,0.00,WeatherDisplay:10.37,2013-04-17 02:58:00,
2013-04-16 23:03:00,67.8,65.7,30.15,NE,45,0.1,2.7,93,0.00,FEW,,0.00,WeatherDisplay:10.37,2013-04-17 03:03:00,
2013-04-16 23:08:00,67.8,65.7,30.15,NE,45,0.0,4.6,93,0.00,FEW,,0.00,WeatherDisplay:10.37,2013-04-17 03:08:00,
2013-04-16 23:13:00,67.6,65.5,30.15,NE,45,0.7,2.3,93,0.00,FEW,,0.00,WeatherDisplay:10.37,2013-04-17 03:13:00,
2013-04-16 23:18:00,67.6,65.5,30.15,NE,45,0.1,2.3,93,0.00,FEW,,0.00,WeatherDisplay:10.37,2013-04-17 03:18:00,
2013-04-16 23:23:00,67.6,65.9,30.14,NE,45,1.0,3.5,94,0.00,FEW,,0.00,WeatherDisplay:10.37,2013-04-17 03:23:00,
2013-04-16 23:28:00,67.5,65.7,30.15,NE,45,1.4,5.8,94,0.00,FEW,,0.00,WeatherDisplay:10.37,2013-04-17 03:28:00,
2013-04-16 23:33:00,67.5,65.7,30.14,NE,45,1.6,4.6,94,0.00,FEW,,0.00,WeatherDisplay:10.37,2013-04-17 03:33:00,
2013-04-16 23:38:00,67.5,65.7,30.14,NE,45,0.5,2.3,94,0.00,FEW,,0.00,WeatherDisplay:10.37,2013-04-17 03:38:00,
2013-04-16 23:43:00,67.3,65.5,30.14,NE,45,0.5,4.6,94,0.00,FEW,,0.00,WeatherDisplay:10.37,2013-04-17 03:43:00,
2013-04-16 23:48:00,67.3,65.5,30.14,NE,45,0.0,0.0,94,0.00,FEW,,0.00,WeatherDisplay:10.37,2013-04-17 03:48:00,
2013-04-16 23:53:00,67.1,65.3,30.15,NE,45,0.9,2.7,94,0.00,FEW,,0.00,WeatherDisplay:10.37,2013-04-17 03:53:00,
2013-04-16 23:58:00,67.3,65.5,30.14,NE,45,1.2,5.8,94,0.00,FEW,,0.00,WeatherDisplay:10.37,2013-04-17 03:58:00,